Time;durP1;ratioP1;P1;durP2;ratioP2;P2;SDS_P1;SDS_P2;PMS_P1;PMS_P2;Temp;Humidity;BMP_temperature;BMP_pressure;BME280_temperature;BME280_humidity;BME280_pressure;Samples;Min_cycle;Max_cycle;Signal;HPM_P1;HPM_P2
2024/02/08 00:00:10;;;;;;;0.80;0.80;;;10.40;99.90;;;;;;4954529;28;20277;-87
2024/02/08 00:02:35;;;;;;;1.00;0.90;;;10.50;99.90;;;;;;4968812;28;20674;-87
2024/02/08 00:05:02;;;;;;;0.67;0.67;;;10.50;99.90;;;;;;4955378;28;20244;-87
2024/02/08 00:07:27;;;;;;;1.15;0.73;;;10.60;99.90;;;;;;4955740;28;20187;-87
2024/02/08 00:09:55;;;;;;;1.07;0.90;;;10.70;99.90;;;;;;4955247;28;20219;-87
2024/02/08 00:12:21;;;;;;;1.00;0.75;;;11.10;99.90;;;;;;4951674;28;20218;-87
2024/02/08 00:14:48;;;;;;;1.27;0.90;;;11.10;99.90;;;;;;4955233;28;20266;-88
2024/02/08 00:17:14;;;;;;;0.80;0.70;;;11.00;99.90;;;;;;4954192;28;20451;-87
2024/02/08 00:19:39;;;;;;;0.77;0.70;;;10.80;99.90;;;;;;4954361;28;20194;-87
2024/02/08 00:22:05;;;;;;;0.90;0.70;;;10.80;99.90;;;;;;4954181;28;20186;-87
2024/02/08 00:24:36;;;;;;;0.80;0.70;;;11.00;99.90;;;;;;4953791;28;20257;-87
2024/02/08 00:27:04;;;;;;;1.25;0.80;;;10.30;99.90;;;;;;4955660;28;20204;-88
2024/02/08 00:29:29;;;;;;;0.80;0.77;;;10.20;99.90;;;;;;4953796;28;20635;-87
2024/02/08 00:31:59;;;;;;;1.30;0.90;;;11.20;99.90;;;;;;4955333;28;20191;-87
2024/02/08 00:34:25;;;;;;;0.82;0.60;;;10.70;99.90;;;;;;4955546;28;20261;-88
2024/02/08 00:36:51;;;;;;;2.13;0.70;;;11.10;99.90;;;;;;4952690;28;20182;-88
2024/02/08 00:39:17;;;;;;;0.67;0.63;;;11.20;99.90;;;;;;4956443;28;20441;-88
2024/02/08 00:41:49;;;;;;;0.60;0.60;;;10.90;99.90;;;;;;4958213;28;20183;-88
2024/02/08 00:44:16;;;;;;;1.00;0.70;;;10.60;99.90;;;;;;4950455;28;20443;-88
2024/02/08 00:46:41;;;;;;;0.80;0.60;;;10.70;99.90;;;;;;4951818;28;20204;-88
2024/02/08 00:49:07;;;;;;;0.70;0.63;;;11.10;99.90;;;;;;4949955;28;20229;-88
2024/02/08 00:51:32;;;;;;;1.37;0.83;;;10.70;99.90;;;;;;4953162;28;20187;-88
2024/02/08 00:53:59;;;;;;;2.37;1.03;;;10.90;99.90;;;;;;4950362;28;20652;-88
2024/02/08 00:56:25;;;;;;;0.70;0.60;;;11.10;99.90;;;;;;4952573;28;20206;-88
2024/02/08 00:58:51;;;;;;;0.60;0.60;;;10.80;99.90;;;;;;4953204;28;20200;-88
2024/02/08 01:01:17;;;;;;;0.70;0.60;;;10.90;99.90;;;;;;4954044;28;20439;-88
2024/02/08 01:03:43;;;;;;;0.60;0.55;;;11.40;99.90;;;;;;4954221;28;20193;-88
2024/02/08 01:06:09;;;;;;;0.85;0.75;;;10.80;99.90;;;;;;4955447;28;20695;-86
2024/02/08 01:08:34;;;;;;;1.10;0.70;;;10.90;99.90;;;;;;4958605;28;20176;-87
2024/02/08 01:11:00;;;;;;;0.70;0.67;;;10.90;99.90;;;;;;4960379;28;20260;-87
2024/02/08 01:13:27;;;;;;;0.80;0.70;;;11.30;99.90;;;;;;4951757;28;20651;-87
2024/02/08 01:15:53;;;;;;;0.90;0.80;;;10.90;99.90;;;;;;4956612;28;20285;-87
2024/02/08 01:18:20;;;;;;;0.70;0.70;;;10.80;99.90;;;;;;4974340;28;20185;-87
2024/02/08 01:20:50;;;;;;;0.73;0.70;;;11.00;99.90;;;;;;4973790;28;20238;-87
2024/02/08 01:23:18;;;;;;;0.98;0.70;;;11.10;99.90;;;;;;4971127;28;20863;-87
2024/02/08 01:25:46;;;;;;;0.90;0.80;;;10.80;99.90;;;;;;4956518;28;20805;-87
2024/02/08 01:28:12;;;;;;;0.70;0.60;;;11.00;99.90;;;;;;4956865;28;20179;-87
2024/02/08 01:30:38;;;;;;;0.73;0.73;;;10.90;99.90;;;;;;4954901;28;20494;-87
2024/02/08 01:33:06;;;;;;;0.70;0.60;;;10.90;99.90;;;;;;4956726;28;20192;-87
2024/02/08 01:35:32;;;;;;;0.80;0.75;;;10.70;99.90;;;;;;4973357;28;20233;-87
2024/02/08 01:37:59;;;;;;;0.80;0.60;;;11.00;99.90;;;;;;4956696;28;20218;-87
2024/02/08 01:40:26;;;;;;;0.80;0.70;;;10.70;99.90;;;;;;4960857;28;20561;-87
2024/02/08 01:42:57;;;;;;;0.75;0.65;;;10.80;99.90;;;;;;4965860;28;20175;-87
2024/02/08 01:45:30;;;;;;;0.80;0.68;;;11.00;99.90;;;;;;4998297;28;20221;-87
2024/02/08 01:48:02;;;;;;;1.23;0.77;;;11.00;99.90;;;;;;4976960;28;20196;-87
2024/02/08 01:50:35;;;;;;;1.08;0.60;;;11.20;99.90;;;;;;4978273;28;20232;-87
2024/02/08 01:53:06;;;;;;;0.73;0.70;;;11.00;99.90;;;;;;4957286;28;20183;-87
2024/02/08 01:55:33;;;;;;;0.70;0.60;;;10.90;99.90;;;;;;4955214;28;20596;-87
2024/02/08 01:58:05;;;;;;;0.70;0.63;;;10.80;99.90;;;;;;4951755;28;20558;-87
2024/02/08 02:00:36;;;;;;;0.70;0.60;;;11.00;99.90;;;;;;4955744;28;20210;-87
2024/02/08 02:03:03;;;;;;;1.23;0.70;;;10.90;99.90;;;;;;4974946;28;20165;-87
2024/02/08 02:05:29;;;;;;;0.80;0.80;;;10.90;99.90;;;;;;4971537;28;20620;-87
2024/02/08 02:07:55;;;;;;;1.03;0.60;;;10.70;99.90;;;;;;4958989;28;20216;-87
2024/02/08 02:10:20;;;;;;;1.17;0.93;;;11.30;99.90;;;;;;4958328;28;20577;-87
2024/02/08 02:12:48;;;;;;;0.77;0.60;;;11.00;99.90;;;;;;4974249;28;20187;-87
2024/02/08 02:15:16;;;;;;;0.90;0.77;;;11.00;99.90;;;;;;4961266;28;20272;-87
2024/02/08 02:17:45;;;;;;;0.70;0.60;;;10.90;99.90;;;;;;4962211;28;20187;-86
2024/02/08 02:20:18;;;;;;;0.93;0.70;;;11.40;99.90;;;;;;4970917;28;20190;-86
2024/02/08 02:22:47;;;;;;;1.55;0.90;;;11.40;99.90;;;;;;4974456;28;20188;-87
2024/02/08 02:25:13;;;;;;;1.83;0.90;;;10.90;99.90;;;;;;4966126;28;20229;-87
2024/02/08 02:27:40;;;;;;;0.70;0.60;;;11.30;99.90;;;;;;4980610;28;20207;-87
2024/02/08 02:30:17;;;;;;;0.70;0.60;;;11.30;99.90;;;;;;4979270;28;20190;-87
2024/02/08 02:32:49;;;;;;;1.77;0.90;;;11.10;99.90;;;;;;4987664;28;20194;-87
2024/02/08 02:35:17;;;;;;;0.80;0.70;;;11.10;99.90;;;;;;4959589;28;20219;-87
2024/02/08 02:37:46;;;;;;;1.13;0.80;;;11.50;99.90;;;;;;4963957;28;20187;-87
2024/02/08 02:40:22;;;;;;;0.80;0.70;;;11.20;99.90;;;;;;4970610;28;20238;-87
2024/02/08 02:42:48;;;;;;;0.70;0.70;;;10.90;99.90;;;;;;4964108;28;20187;-87
2024/02/08 02:45:15;;;;;;;2.33;1.10;;;11.10;99.90;;;;;;4960792;28;20236;-87
2024/02/08 02:47:42;;;;;;;1.30;1.20;;;11.10;99.90;;;;;;4943783;28;20194;-87
2024/02/08 02:50:08;;;;;;;0.70;0.60;;;11.40;99.90;;;;;;4962014;28;20190;-87
2024/02/08 02:52:34;;;;;;;0.70;0.60;;;11.00;99.90;;;;;;4957545;28;20191;-87
2024/02/08 02:54:59;;;;;;;1.33;0.53;;;10.70;99.90;;;;;;4959897;28;20217;-87
2024/02/08 02:57:25;;;;;;;0.83;0.77;;;11.00;99.90;;;;;;4970965;28;20291;-87
2024/02/08 02:59:50;;;;;;;1.70;0.73;;;10.80;99.90;;;;;;4959927;28;20199;-88
2024/02/08 03:02:23;;;;;;;0.60;0.50;;;11.40;99.90;;;;;;4979559;28;20206;-87
2024/02/08 03:04:49;;;;;;;0.60;0.47;;;11.00;99.90;;;;;;4963109;28;20213;-87
2024/02/08 03:07:16;;;;;;;0.60;0.50;;;11.30;99.90;;;;;;4960968;28;20187;-88
2024/02/08 03:09:42;;;;;;;1.00;0.80;;;10.80;99.90;;;;;;4970555;28;20194;-87
2024/02/08 03:12:09;;;;;;;0.70;0.50;;;11.30;99.90;;;;;;4978493;28;20181;-88
2024/02/08 03:14:35;;;;;;;0.70;0.60;;;11.40;99.90;;;;;;4980394;28;20222;-87
2024/02/08 03:17:02;;;;;;;0.60;0.50;;;10.90;99.90;;;;;;4967997;28;20676;-88
2024/02/08 03:19:28;;;;;;;0.70;0.50;;;11.20;99.90;;;;;;4968048;28;20200;-88
2024/02/08 03:21:54;;;;;;;0.80;0.50;;;11.30;99.90;;;;;;4964898;28;20695;-88
2024/02/08 03:24:24;;;;;;;2.13;0.60;;;11.10;99.90;;;;;;4974780;28;20195;-88
2024/02/08 03:26:49;;;;;;;0.60;0.50;;;11.50;99.90;;;;;;4974073;28;20483;-86
2024/02/08 03:29:16;;;;;;;0.80;0.60;;;10.80;99.90;;;;;;4977047;28;20193;-87
2024/02/08 03:31:45;;;;;;;0.70;0.50;;;11.20;99.90;;;;;;4976417;28;20175;-87
2024/02/08 03:34:29;;;;;;;0.60;0.50;;;11.00;99.90;;;;;;4976631;28;20206;-86
2024/02/08 03:36:58;;;;;;;0.60;0.50;;;11.10;99.90;;;;;;4978030;28;20193;-87
2024/02/08 03:39:26;;;;;;;0.60;0.50;;;11.00;99.90;;;;;;4964126;28;20246;-87
2024/02/08 03:42:00;;;;;;;0.60;0.50;;;11.10;99.90;;;;;;4956171;28;20182;-88
2024/02/08 03:44:30;;;;;;;0.50;0.40;;;11.00;99.90;;;;;;4951275;28;20193;-88
2024/02/08 03:46:56;;;;;;;0.98;0.50;;;11.10;99.90;;;;;;4957001;28;20565;-87
2024/02/08 03:49:24;;;;;;;0.80;0.63;;;11.10;99.90;;;;;;4956446;28;20283;-88
2024/02/08 03:51:50;;;;;;;0.60;0.45;;;11.00;99.90;;;;;;4957630;28;20973;-88
2024/02/08 03:54:16;;;;;;;0.60;0.50;;;11.10;99.90;;;;;;4974989;28;20585;-87
2024/02/08 03:56:45;;;;;;;0.70;0.60;;;11.20;99.90;;;;;;4971251;28;20206;-87
2024/02/08 03:59:12;;;;;;;0.60;0.60;;;11.30;99.90;;;;;;4955633;28;20188;-88
2024/02/08 04:01:38;;;;;;;0.73;0.60;;;11.30;99.90;;;;;;4958890;28;20194;-88
2024/02/08 04:04:12;;;;;;;1.48;0.68;;;11.60;99.90;;;;;;4957345;28;20187;-87
2024/02/08 04:07:14;;;;;;;0.80;0.70;;;11.50;99.90;;;;;;4958021;28;20302;-89
2024/02/08 04:09:36;;;;;;;0.70;0.60;;;11.20;99.90;;;;;;4974089;28;20205;-87
2024/02/08 04:56:10;;;;;;;0.70;0.60;;;11.20;99.90;;;;;;4973190;28;20600;-89
2024/02/08 04:58:41;;;;;;;3.58;0.70;;;11.20;99.90;;;;;;4953727;28;20266;-88
2024/02/08 05:01:08;;;;;;;1.17;0.70;;;11.20;99.90;;;;;;4955102;28;20206;-88
2024/02/08 05:03:42;;;;;;;0.60;0.50;;;11.20;99.90;;;;;;4955841;28;20217;-88
2024/02/08 05:06:14;;;;;;;1.00;0.63;;;11.30;99.90;;;;;;4956192;28;20222;-88
2024/02/08 05:08:45;;;;;;;0.68;0.63;;;11.50;99.90;;;;;;4956408;28;20292;-88
2024/02/08 05:11:14;;;;;;;0.80;0.60;;;11.20;99.90;;;;;;4959697;28;20315;-88
2024/02/08 05:13:41;;;;;;;0.60;0.50;;;11.40;99.90;;;;;;4960971;28;20250;-88
2024/02/08 05:16:08;;;;;;;1.92;0.70;;;11.60;99.90;;;;;;4959578;28;20984;-88
2024/02/08 05:18:36;;;;;;;0.90;0.70;;;11.30;99.90;;;;;;4959626;28;20195;-88
2024/02/08 05:21:05;;;;;;;0.90;0.80;;;11.70;99.90;;;;;;4961700;28;20191;-88
2024/02/08 05:23:33;;;;;;;0.80;0.80;;;11.10;99.90;;;;;;4959163;28;20256;-88
2024/02/08 05:25:59;;;;;;;1.10;0.93;;;11.60;99.90;;;;;;4955983;28;20225;-88
2024/02/08 05:28:26;;;;;;;0.70;0.60;;;11.10;99.90;;;;;;4977288;28;20270;-88
2024/02/08 05:30:52;;;;;;;1.17;0.70;;;11.10;99.90;;;;;;4956893;28;20756;-88
2024/02/08 05:33:18;;;;;;;1.80;0.90;;;11.40;99.90;;;;;;4975180;28;20181;-88
2024/02/08 05:35:44;;;;;;;1.20;1.00;;;10.90;99.90;;;;;;4974860;28;20242;-88
2024/02/08 05:38:10;;;;;;;0.90;0.67;;;10.90;99.90;;;;;;4976043;28;20212;-88
2024/02/08 05:40:41;;;;;;;0.80;0.63;;;10.80;99.90;;;;;;4959347;28;20194;-88
2024/02/08 05:43:07;;;;;;;0.88;0.80;;;11.40;99.90;;;;;;4956529;28;20467;-88
2024/02/08 05:45:33;;;;;;;2.67;0.70;;;11.30;99.90;;;;;;4959940;28;20214;-87
2024/02/08 05:48:05;;;;;;;1.30;0.90;;;11.40;99.90;;;;;;4961039;28;20183;-87
2024/02/08 05:50:34;;;;;;;0.95;0.70;;;10.90;99.90;;;;;;4977341;28;20189;-88
2024/02/08 05:53:06;;;;;;;0.90;0.80;;;11.00;99.90;;;;;;4967727;28;20198;-87
2024/02/08 05:55:34;;;;;;;1.30;1.02;;;11.40;99.90;;;;;;4966167;28;20276;-87
2024/02/08 05:58:03;;;;;;;1.60;0.85;;;11.00;99.90;;;;;;4965185;28;20193;-87
2024/02/08 06:00:35;;;;;;;1.00;0.80;;;11.10;99.90;;;;;;4964119;28;20183;-88
2024/02/08 06:03:05;;;;;;;3.40;1.00;;;11.40;99.90;;;;;;4995950;28;20181;-87
2024/02/08 06:05:31;;;;;;;1.42;1.33;;;10.90;99.90;;;;;;4984444;28;20202;-86
2024/02/08 06:07:58;;;;;;;1.07;0.60;;;10.80;99.90;;;;;;4982808;28;20213;-86
2024/02/08 06:13:22;;;;;;;2.15;1.75;;;11.30;99.90;;;;;;4990538;28;20226;-87
2024/02/08 06:15:53;;;;;;;1.03;0.60;;;10.90;99.90;;;;;;4980437;28;20272;-88
2024/02/08 06:18:30;;;;;;;1.02;0.80;;;11.00;99.90;;;;;;4978136;28;20585;-87
2024/02/08 06:20:59;;;;;;;1.63;0.95;;;10.80;99.90;;;;;;4999518;28;20531;-88
2024/02/08 06:23:34;;;;;;;0.60;0.52;;;10.60;99.90;;;;;;4980896;28;20262;-88
2024/02/08 06:28:37;;;;;;;0.70;0.70;;;10.70;99.90;;;;;;5000887;28;20167;-87
2024/02/08 06:31:06;;;;;;;0.95;0.82;;;10.90;99.90;;;;;;4982176;28;20196;-88
2024/02/08 06:33:42;;;;;;;3.10;2.47;;;10.60;99.90;;;;;;4983625;28;20206;-87
2024/02/08 06:36:08;;;;;;;1.10;0.90;;;11.10;99.90;;;;;;4979343;28;20233;-87
2024/02/08 06:38:43;;;;;;;0.65;0.55;;;10.60;99.90;;;;;;4978043;28;20195;-87
2024/02/08 06:41:12;;;;;;;0.70;0.60;;;10.90;99.90;;;;;;4981715;28;20182;-88
2024/02/08 06:44:42;;;;;;;0.85;0.70;;;10.70;99.90;;;;;;4964916;28;20283;-88
2024/02/08 06:46:47;;;;;;;2.58;1.00;;;10.60;99.90;;;;;;4983134;28;20226;-87
2024/02/08 07:39:30;;;;;;;1.50;0.80;;;11.30;99.90;;;;;;4994341;28;20240;-89
2024/02/08 07:41:53;;;;;;;0.95;0.80;;;10.70;99.90;;;;;;4996502;28;20206;-88
2024/02/08 07:44:30;;;;;;;1.40;1.10;;;11.30;99.90;;;;;;4981003;28;20199;-88
2024/02/08 07:46:57;;;;;;;0.93;0.82;;;11.00;99.90;;;;;;4996695;28;20190;-88
2024/02/08 07:49:42;;;;;;;1.10;0.88;;;10.90;99.90;;;;;;4979458;28;20195;-88
2024/02/08 07:52:19;;;;;;;1.58;0.80;;;11.00;99.90;;;;;;4980451;28;20241;-89
2024/02/08 07:54:47;;;;;;;1.00;1.00;;;11.00;99.90;;;;;;4977227;28;20220;-89
2024/02/08 07:57:13;;;;;;;1.10;1.00;;;10.50;99.90;;;;;;4992003;28;20216;-88
2024/02/08 07:59:42;;;;;;;1.07;0.97;;;11.00;99.90;;;;;;4978101;28;20205;-88
2024/02/08 08:02:12;;;;;;;1.05;0.85;;;10.80;99.90;;;;;;4978892;28;20186;-88
2024/02/08 08:04:52;;;;;;;1.75;0.90;;;11.10;99.90;;;;;;4976336;28;20179;-88
2024/02/08 08:07:23;;;;;;;2.45;0.80;;;11.50;99.90;;;;;;4976888;28;20287;-89
2024/02/08 08:09:59;;;;;;;1.13;0.70;;;11.30;99.90;;;;;;4983654;28;20180;-87
2024/02/08 08:12:28;;;;;;;2.13;0.90;;;11.40;99.90;;;;;;4978063;28;20188;-89
2024/02/08 08:17:40;;;;;;;0.70;0.70;;;11.30;99.90;;;;;;4995025;28;20249;-89
2024/02/08 08:20:56;;;;;;;1.58;0.75;;;11.40;99.90;;;;;;4991665;28;20223;-88
2024/02/08 08:23:00;;;;;;;1.35;0.82;;;11.70;99.90;;;;;;4971123;28;20261;-88
2024/02/08 08:25:28;;;;;;;2.80;1.07;;;11.70;99.90;;;;;;4958535;28;20206;-87
2024/02/08 08:28:10;;;;;;;2.28;0.70;;;11.90;99.90;;;;;;4960867;28;20250;-88
2024/02/08 08:30:38;;;;;;;0.70;0.60;;;11.70;99.90;;;;;;4944830;28;20249;-88
2024/02/08 08:40:48;;;;;;;0.95;0.70;;;12.10;99.90;;;;;;4977729;28;20200;-86
2024/02/08 08:43:22;;;;;;;1.23;0.80;;;12.60;99.90;;;;;;4945502;28;20199;-87
2024/02/08 08:46:00;;;;;;;1.05;0.90;;;12.40;99.90;;;;;;4959748;28;20210;-86
2024/02/08 08:48:30;;;;;;;1.10;0.90;;;12.50;99.90;;;;;;4960906;28;20191;-87
2024/02/08 08:50:57;;;;;;;0.70;0.70;;;12.20;99.90;;;;;;4977551;28;20278;-87
2024/02/08 08:53:27;;;;;;;1.05;0.80;;;12.50;99.90;;;;;;4946770;28;20590;-88
2024/02/08 08:56:01;;;;;;;1.42;0.93;;;12.40;99.90;;;;;;4959230;28;20219;-87
2024/02/08 08:58:38;;;;;;;1.02;0.93;;;12.10;99.90;;;;;;4961160;28;20183;-87
2024/02/08 09:01:21;;;;;;;0.75;0.75;;;12.10;99.90;;;;;;4958998;28;20249;-88
2024/02/08 09:06:32;;;;;;;0.80;0.70;;;12.30;99.90;;;;;;4981611;28;20214;-89
2024/02/08 09:09:21;;;;;;;0.80;0.70;;;12.30;99.90;;;;;;4975251;28;20188;-89
2024/02/08 09:11:44;;;;;;;0.80;0.68;;;12.40;99.90;;;;;;4980996;28;20183;-89
2024/02/08 09:14:10;;;;;;;1.10;0.60;;;12.30;99.90;;;;;;4979291;28;20228;-88
2024/02/08 09:16:36;;;;;;;0.70;0.70;;;12.50;99.90;;;;;;4963031;28;20203;-88
2024/02/08 09:21:32;;;;;;;0.60;0.50;;;12.50;99.90;;;;;;4980764;28;20211;-88
2024/02/08 09:24:03;;;;;;;0.90;0.80;;;12.40;99.90;;;;;;4961048;28;20235;-87
2024/02/08 09:26:46;;;;;;;0.70;0.60;;;12.60;99.90;;;;;;4976115;28;20203;-87
2024/02/08 09:29:12;;;;;;;1.95;0.60;;;12.90;99.90;;;;;;4971550;28;20196;-86
2024/02/08 09:31:38;;;;;;;1.85;0.57;;;12.50;99.90;;;;;;4980917;28;20216;-89
2024/02/08 09:34:14;;;;;;;0.73;0.60;;;12.60;99.90;;;;;;4955521;28;20204;-89
2024/02/08 09:36:42;;;;;;;0.70;0.50;;;12.30;99.90;;;;;;4958487;28;20226;-87
2024/02/08 09:39:14;;;;;;;0.60;0.52;;;12.20;99.90;;;;;;4956400;28;20182;-88
2024/02/08 09:41:44;;;;;;;0.90;0.70;;;12.80;99.90;;;;;;4976873;28;20239;-88
2024/02/08 09:44:19;;;;;;;0.70;0.60;;;13.10;99.90;;;;;;4971399;28;20279;-89
2024/02/08 09:46:56;;;;;;;0.75;0.52;;;12.90;99.90;;;;;;4988705;28;20211;-88
2024/02/08 09:49:34;;;;;;;1.58;0.80;;;13.30;99.90;;;;;;4968865;28;20199;-88
2024/02/08 09:52:14;;;;;;;0.80;0.57;;;13.10;99.90;;;;;;4971353;28;20199;-87
2024/02/08 09:54:46;;;;;;;1.30;0.70;;;13.50;99.90;;;;;;4971944;28;20215;-87
2024/02/08 09:57:21;;;;;;;0.93;0.80;;;13.20;99.90;;;;;;4972000;28;20192;-88
2024/02/08 10:00:07;;;;;;;2.67;0.90;;;13.50;99.90;;;;;;4960187;28;20215;-89
2024/02/08 10:02:33;;;;;;;1.30;0.88;;;12.60;99.90;;;;;;4974505;28;20184;-88
2024/02/08 10:05:19;;;;;;;0.80;0.70;;;13.20;99.90;;;;;;4978532;28;20223;-88
2024/02/08 10:08:09;;;;;;;0.77;0.60;;;12.70;99.90;;;;;;4977531;28;20176;-88
2024/02/08 10:10:56;;;;;;;1.17;1.00;;;13.70;99.90;;;;;;4977494;28;20187;-88
2024/02/08 10:13:40;;;;;;;2.30;1.00;;;13.40;99.90;;;;;;4964963;28;20215;-88
2024/02/08 10:16:12;;;;;;;1.90;0.80;;;13.00;99.90;;;;;;4972734;28;20228;-87
2024/02/08 10:18:38;;;;;;;1.10;0.77;;;13.40;99.90;;;;;;4976537;28;20248;-88
2024/02/08 10:21:13;;;;;;;0.90;0.70;;;13.30;99.90;;;;;;4979358;28;20279;-88
2024/02/08 10:26:48;;;;;;;3.05;1.35;;;13.20;99.90;;;;;;4961249;28;20251;-88
2024/02/08 10:29:16;;;;;;;1.13;1.00;;;13.30;99.90;;;;;;4971356;28;20512;-89
2024/02/08 10:31:42;;;;;;;1.40;1.30;;;13.40;99.90;;;;;;4974837;28;20200;-88
2024/02/08 10:34:23;;;;;;;1.20;0.93;;;13.60;99.90;;;;;;4977392;28;20196;-88
2024/02/08 10:36:48;;;;;;;1.15;0.88;;;13.80;99.90;;;;;;4976788;28;20180;-88
2024/02/08 10:39:26;;;;;;;2.30;1.60;;;13.60;99.90;;;;;;4980127;28;20234;-89
2024/02/08 10:41:58;;;;;;;1.77;1.35;;;13.60;99.90;;;;;;4980219;28;20196;-89
2024/02/08 10:44:27;;;;;;;0.85;0.80;;;13.20;99.90;;;;;;4978057;28;20192;-89
2024/02/08 10:47:09;;;;;;;1.00;0.70;;;13.80;99.90;;;;;;4968121;28;20184;-89
2024/02/08 10:49:42;;;;;;;0.88;0.88;;;13.40;99.90;;;;;;4951865;28;20633;-88
2024/02/08 10:52:11;;;;;;;1.50;0.90;;;13.30;99.90;;;;;;4958292;28;20188;-88
2024/02/08 10:54:48;;;;;;;1.23;0.75;;;13.20;99.90;;;;;;4961059;28;20311;-88
2024/02/08 10:57:39;;;;;;;0.60;0.50;;;13.40;99.90;;;;;;4961961;28;20188;-87
2024/02/08 11:03:08;;;;;;;0.80;0.70;;;12.80;99.90;;;;;;4986724;28;20267;-88
2024/02/08 11:06:00;;;;;;;0.70;0.70;;;13.00;99.90;;;;;;4953380;28;20215;-89
2024/02/08 11:08:50;;;;;;;0.70;0.60;;;13.10;99.90;;;;;;4969142;28;20231;-88
2024/02/08 11:11:12;;;;;;;1.38;1.05;;;12.70;99.90;;;;;;4987778;28;20194;-87
2024/02/08 11:13:45;;;;;;;0.90;0.68;;;14.00;99.90;;;;;;4958471;28;20226;-88
2024/02/08 11:16:20;;;;;;;1.13;1.02;;;13.30;99.90;;;;;;4947724;28;20208;-88
2024/02/08 11:18:52;;;;;;;0.98;0.73;;;13.80;99.90;;;;;;4957377;28;20180;-88
2024/02/08 11:21:24;;;;;;;1.33;0.85;;;13.30;99.90;;;;;;4960205;28;20540;-88
2024/02/08 11:23:53;;;;;;;0.70;0.70;;;13.80;99.90;;;;;;4965084;28;20200;-89
2024/02/08 11:26:25;;;;;;;1.88;0.93;;;13.70;99.90;;;;;;4959543;28;20709;-88
2024/02/08 11:29:04;;;;;;;0.80;0.80;;;14.10;99.90;;;;;;4962465;28;20192;-89
2024/02/08 11:31:41;;;;;;;1.15;0.80;;;13.80;99.90;;;;;;4958657;28;20176;-88
2024/02/08 11:34:13;;;;;;;1.98;0.80;;;13.70;99.90;;;;;;4958596;28;20210;-88
2024/02/08 11:36:42;;;;;;;0.75;0.60;;;13.50;99.90;;;;;;4961461;28;20200;-90
2024/02/08 11:39:30;;;;;;;0.60;0.50;;;13.90;99.90;;;;;;4963050;28;20192;-89
2024/02/08 11:42:00;;;;;;;1.27;0.70;;;14.40;99.90;;;;;;4970394;28;20259;-89
2024/02/08 11:44:35;;;;;;;0.85;0.65;;;14.10;99.90;;;;;;4964893;28;20665;-90
2024/02/08 11:47:17;;;;;;;2.38;1.63;;;13.90;99.90;;;;;;4958352;28;20184;-90
2024/02/08 11:49:53;;;;;;;0.90;0.63;;;13.70;99.90;;;;;;4961819;28;21081;-90
2024/02/08 11:52:23;;;;;;;1.17;1.08;;;13.90;99.90;;;;;;4963051;28;20189;-90
2024/02/08 11:55:20;;;;;;;1.40;0.60;;;13.70;99.90;;;;;;4962055;28;20685;-89
2024/02/08 11:57:47;;;;;;;0.80;0.63;;;14.30;99.90;;;;;;4943784;28;20255;-89
2024/02/08 12:00:16;;;;;;;0.90;0.70;;;14.30;99.90;;;;;;4958361;28;20231;-90
2024/02/08 12:05:33;;;;;;;0.80;0.70;;;13.80;99.90;;;;;;5061226;23;20238;-89
2024/02/08 12:08:09;;;;;;;1.15;0.75;;;15.00;99.90;;;;;;4962818;28;20207;-91
2024/02/08 12:10:35;;;;;;;1.80;1.10;;;14.00;99.90;;;;;;4942561;28;20196;-89
2024/02/08 12:13:01;;;;;;;1.05;0.80;;;14.20;99.90;;;;;;4975303;28;20188;-89
2024/02/08 12:15:28;;;;;;;1.03;0.80;;;13.90;99.90;;;;;;4958716;28;20233;-89
2024/02/08 12:18:08;;;;;;;1.50;0.60;;;13.60;99.90;;;;;;4976950;28;20613;-90
2024/02/08 12:20:36;;;;;;;1.10;0.70;;;14.20;99.90;;;;;;4977276;28;20194;-89
2024/02/08 12:23:02;;;;;;;1.30;0.70;;;14.20;99.90;;;;;;4953531;28;20188;-89
2024/02/08 12:25:28;;;;;;;1.27;0.90;;;14.20;99.90;;;;;;4958157;28;20223;-89
2024/02/08 12:28:04;;;;;;;2.38;1.58;;;14.50;99.90;;;;;;4958412;28;20239;-88
2024/02/08 12:30:33;;;;;;;4.63;1.15;;;14.40;99.90;;;;;;4952296;28;20188;-89
2024/02/08 12:33:07;;;;;;;1.30;0.80;;;14.60;99.90;;;;;;4957806;28;20272;-89
2024/02/08 12:35:40;;;;;;;2.22;0.85;;;14.40;99.90;;;;;;4938399;28;20238;-88
2024/02/08 12:38:07;;;;;;;3.22;1.10;;;13.90;99.90;;;;;;4955896;28;20185;-86
2024/02/08 12:40:33;;;;;;;2.60;1.10;;;14.00;99.90;;;;;;4955073;28;20605;-87
2024/02/08 12:42:59;;;;;;;2.70;1.00;;;14.50;99.90;;;;;;4959387;28;20257;-86
2024/02/08 12:45:28;;;;;;;5.18;1.30;;;14.50;99.90;;;;;;4953785;28;20665;-87
2024/02/08 12:47:57;;;;;;;3.05;0.88;;;14.60;99.90;;;;;;4953877;28;20231;-87
2024/02/08 12:50:23;;;;;;;1.30;0.90;;;14.50;99.90;;;;;;4956577;28;20184;-87
2024/02/08 12:52:55;;;;;;;3.33;1.20;;;14.70;99.90;;;;;;4952999;28;20291;-87
2024/02/08 12:55:31;;;;;;;5.35;1.30;;;14.30;99.90;;;;;;4970393;28;20288;-86
2024/02/08 12:58:01;;;;;;;2.80;1.60;;;13.90;99.90;;;;;;4941460;28;20238;-88
2024/02/08 13:00:33;;;;;;;5.90;1.17;;;14.70;99.90;;;;;;4956909;28;20187;-88
2024/02/08 13:03:05;;;;;;;2.72;1.45;;;14.50;99.90;;;;;;4970150;28;20199;-88
2024/02/08 13:05:38;;;;;;;2.80;2.05;;;14.50;99.90;;;;;;4952928;28;20242;-86
2024/02/08 13:08:06;;;;;;;7.18;2.72;;;14.50;99.90;;;;;;4954560;28;20282;-87
2024/02/08 13:10:32;;;;;;;3.55;1.50;;;14.50;99.90;;;;;;4956667;28;20188;-88
2024/02/08 13:12:59;;;;;;;5.55;1.50;;;14.10;99.90;;;;;;4954794;28;20192;-88
2024/02/08 13:15:25;;;;;;;5.80;1.45;;;14.70;99.90;;;;;;4951843;28;20685;-88
2024/02/08 13:17:50;;;;;;;6.00;2.03;;;14.80;99.90;;;;;;4952478;28;20199;-87
2024/02/08 13:20:16;;;;;;;4.93;1.60;;;14.40;99.90;;;;;;4954427;28;20203;-87
2024/02/08 13:22:45;;;;;;;3.45;2.00;;;14.30;99.90;;;;;;4953849;28;20188;-88
2024/02/08 13:25:15;;;;;;;4.03;1.63;;;14.50;99.90;;;;;;4955946;28;20579;-89
2024/02/08 13:27:42;;;;;;;5.22;2.10;;;14.50;99.90;;;;;;4960620;28;20179;-88
2024/02/08 13:30:17;;;;;;;5.97;1.58;;;14.70;99.90;;;;;;4970638;28;20184;-89
2024/02/08 13:32:44;;;;;;;4.00;1.60;;;14.80;99.90;;;;;;4951082;28;20185;-91
2024/02/08 13:35:18;;;;;;;5.80;2.00;;;14.40;99.90;;;;;;4953017;28;20280;-88
2024/02/08 13:37:46;;;;;;;5.60;3.00;;;14.60;99.90;;;;;;4954611;28;20704;-88
2024/02/08 13:40:12;;;;;;;6.50;2.25;;;14.50;99.90;;;;;;4952193;28;20215;-91
2024/02/08 13:42:38;;;;;;;6.23;2.03;;;15.00;99.90;;;;;;4951909;28;20654;-91
2024/02/08 13:45:05;;;;;;;4.00;2.30;;;14.60;99.90;;;;;;4953978;28;20557;-91
2024/02/08 13:47:37;;;;;;;6.60;2.78;;;14.70;99.90;;;;;;4957284;28;20203;-90
2024/02/08 13:50:10;;;;;;;4.85;2.40;;;15.00;99.90;;;;;;4972594;28;20181;-90
2024/02/08 13:52:37;;;;;;;4.43;2.53;;;14.60;99.90;;;;;;4955600;28;20199;-89
2024/02/08 13:55:07;;;;;;;7.63;2.20;;;14.80;99.90;;;;;;4958536;28;20216;-89
2024/02/08 13:57:38;;;;;;;5.45;2.20;;;14.90;99.90;;;;;;4963297;28;20397;-92
2024/02/08 14:00:08;;;;;;;8.40;2.58;;;14.90;99.90;;;;;;4958604;28;20192;-89
2024/02/08 14:02:36;;;;;;;7.90;2.45;;;14.70;99.90;;;;;;4953613;28;20180;-90
2024/02/08 14:05:16;;;;;;;7.32;1.90;;;15.00;99.90;;;;;;4955727;28;20631;-88
2024/02/08 14:07:48;;;;;;;6.05;2.28;;;14.90;99.90;;;;;;4974584;28;20184;-92
2024/02/08 14:10:27;;;;;;;7.18;2.90;;;14.80;99.90;;;;;;4959017;28;20590;-83
2024/02/08 14:12:58;;;;;;;7.93;2.65;;;15.40;99.90;;;;;;4959336;28;20246;-86
2024/02/08 14:15:24;;;;;;;6.68;2.42;;;15.20;99.90;;;;;;4960992;28;20335;-84
2024/02/08 14:17:54;;;;;;;8.37;2.40;;;14.60;99.90;;;;;;4989515;28;20191;-89
2024/02/08 14:20:30;;;;;;;6.72;2.22;;;14.30;99.90;;;;;;4978690;28;20168;-89
2024/02/08 14:23:02;;;;;;;7.90;2.55;;;14.80;99.90;;;;;;4986623;28;20184;-89
2024/02/08 14:25:48;;;;;;;6.28;2.28;;;14.60;99.90;;;;;;4974675;28;20231;-88
2024/02/08 14:28:16;;;;;;;7.65;2.60;;;14.90;99.90;;;;;;4970503;28;20252;-89
2024/02/08 14:30:41;;;;;;;7.28;2.70;;;14.70;99.90;;;;;;4962981;28;20184;-90
2024/02/08 14:33:07;;;;;;;4.67;2.77;;;14.70;99.90;;;;;;4972418;28;20203;-89
2024/02/08 14:35:33;;;;;;;7.57;2.10;;;15.00;99.90;;;;;;4976472;28;20239;-88
2024/02/08 14:37:59;;;;;;;10.20;2.80;;;15.10;99.90;;;;;;4967521;28;20795;-89
2024/02/08 14:40:27;;;;;;;7.75;3.22;;;15.30;99.90;;;;;;4955583;28;20693;-89
2024/02/08 14:42:57;;;;;;;9.18;2.38;;;14.70;99.90;;;;;;4958101;28;20189;-90
2024/02/08 14:45:24;;;;;;;7.22;2.72;;;14.90;99.90;;;;;;4953991;28;20204;-89
2024/02/08 14:47:51;;;;;;;8.55;2.72;;;14.70;99.90;;;;;;4956783;28;20188;-90
2024/02/08 14:53:05;;;;;;;6.20;2.88;;;14.40;99.90;;;;;;4973882;28;20664;-92
2024/02/08 14:55:35;;;;;;;9.88;3.63;;;14.60;99.90;;;;;;4953526;28;20613;-89
2024/02/08 14:58:01;;;;;;;8.50;3.30;;;14.90;99.90;;;;;;4958779;28;20191;-88
2024/02/08 15:03:07;;;;;;;12.52;7.05;;;14.60;99.90;;;;;;4959329;28;20212;-88
2024/02/08 15:05:59;;;;;;;6.53;3.05;;;14.50;99.90;;;;;;4952905;28;20216;-90
2024/02/08 15:11:03;;;;;;;6.90;3.22;;;14.80;99.90;;;;;;4978710;28;20254;-88
2024/02/08 15:13:45;;;;;;;9.07;3.47;;;14.70;99.90;;;;;;4958619;28;20180;-88
2024/02/08 15:16:24;;;;;;;9.45;3.30;;;14.80;99.90;;;;;;4957286;28;20312;-90